Abington, Massachusetts
Current Conditions -  °F | °C
As of 4:53 AM on Sunday 23 Nov 2014 (Local Time) from KOWD Reporting Station
Broken Clouds Broken Clouds  
Wind Chill: 40°   Ceiling: 6500
Heat Index: 44°   Visibility: 10mi
Dew Point: 25°   Wind: 7mph
Humidity: 47%   Direction: 220°SW
Pressure: 30.09"   Gusts: NA
Location:  42.12°N, 70.96°W
Report Text: KOWD 230953Z AUTO 22006KT 10SM BKN065 07/M04 A3009 RMK AO2 RAB06E15 SLP191 P0000 T00671039
Loading
Personal Weather Stations






























Interactive Weather Map New forecast layout! Learn more

10-Day Weather Forecast

Advertisements
Track Severe Weather on mobile